createdAt,value
2019-04-05T03:07:11.068Z,2.5
2019-04-05T03:08:00.867Z,2.6
2019-04-05T03:09:05.826Z,2.6
2019-04-05T03:09:41.242Z,2.6
2019-04-05T03:10:31.292Z,2.5
2019-04-05T03:11:20.813Z,2.5
2019-04-05T03:12:11.188Z,2.5
2019-04-05T03:13:01.475Z,2.5
2019-04-05T03:13:51.289Z,2.5
2019-04-05T03:14:41.490Z,2.5
2019-04-05T03:15:31.094Z,2.5
2019-04-05T03:16:21.855Z,2.4
2019-04-05T03:17:11.506Z,2.4
2019-04-05T03:18:01.822Z,2.4
2019-04-05T03:18:51.913Z,2.4
2019-04-05T03:19:41.658Z,2.4
2019-04-05T03:20:31.996Z,2.4
2019-04-05T03:21:21.869Z,2.4
2019-04-05T03:22:12.130Z,2.4
2019-04-05T03:23:02.193Z,2.4
2019-04-05T03:23:52.269Z,2.4
2019-04-05T03:24:42.328Z,2.4
2019-04-05T03:25:32.177Z,2.4
2019-04-05T03:26:22.428Z,2.3
2019-04-05T03:27:12.237Z,2.3
2019-04-05T03:28:02.529Z,2.3
2019-04-05T03:28:52.613Z,2.3
2019-04-05T03:29:42.652Z,2.3
2019-04-05T03:30:32.833Z,2.3
2019-04-05T03:31:28.085Z,2.3
2019-04-05T03:32:12.989Z,2.3
2019-04-05T03:33:03.117Z,2.3
2019-04-05T03:33:53.055Z,2.3
2019-04-05T03:34:43.248Z,2.3
2019-04-05T03:35:33.009Z,2.3
2019-04-05T03:36:22.866Z,2.3
2019-04-05T03:37:12.663Z,2.3
2019-04-05T03:38:03.010Z,2.3
2019-04-05T03:38:52.780Z,2.3
2019-04-05T03:39:43.435Z,2.3
2019-04-05T03:40:32.618Z,2.2
2019-04-05T03:41:23.770Z,2.2
2019-04-05T03:42:13.305Z,2.3
2019-04-05T03:43:03.144Z,2.2
2019-04-05T03:43:53.472Z,2.2
2019-04-05T03:44:43.517Z,2.2
2019-04-05T03:45:33.532Z,2.2
2019-04-05T03:46:23.346Z,2.2
2019-04-05T03:47:13.690Z,2.2
2019-04-05T03:48:04.132Z,2.1
2019-04-05T03:48:53.837Z,2.1
2019-04-05T03:49:44.130Z,2.1
2019-04-05T03:50:34.213Z,2.1
2019-04-05T03:51:23.975Z,2.1
2019-04-05T03:52:14.309Z,2.1
2019-04-05T03:53:04.377Z,2.1
2019-04-05T03:53:54.455Z,2.1
2019-04-05T03:54:44.218Z,2.1
2019-04-05T03:55:34.542Z,2.1
2019-04-05T03:56:24.619Z,2.1
2019-04-05T03:57:14.406Z,2.1
2019-04-05T03:58:04.505Z,2.1
2019-04-05T03:58:54.274Z,2.1
2019-04-05T03:59:44.838Z,2.1
2019-04-05T04:00:34.935Z,2
2019-04-05T04:01:24.727Z,2.1
2019-04-05T04:02:15.012Z,2
2019-04-05T04:03:05.093Z,2.1
2019-04-05T04:03:54.868Z,2.1
2019-04-05T04:04:59.880Z,2.1
2019-04-05T04:05:34.992Z,2.1
2019-04-05T04:06:25.126Z,2.1
2019-04-05T04:07:15.131Z,2.1
2019-04-05T04:08:05.476Z,2
2019-04-05T04:08:54.855Z,2
2019-04-05T04:09:45.603Z,2
2019-04-05T04:10:35.348Z,2
2019-04-05T04:11:25.710Z,2
2019-04-05T04:12:15.783Z,1.9
2019-04-05T04:13:05.536Z,2
2019-04-05T04:13:55.840Z,2
2019-04-05T04:14:45.925Z,1.9
2019-04-05T04:15:36.062Z,2
2019-04-05T04:16:25.801Z,2
2019-04-05T04:17:15.990Z,2
2019-04-05T04:18:05.906Z,2
2019-04-05T04:18:56.287Z,2
2019-04-05T04:19:46.327Z,1.9
2019-04-05T04:20:36.379Z,2
2019-04-05T04:21:26.430Z,1.9
2019-04-05T04:22:16.203Z,2
2019-04-05T04:23:06.531Z,2
2019-04-05T04:23:56.588Z,2
2019-04-05T04:24:46.777Z,2
2019-04-05T04:25:36.740Z,2
2019-04-05T04:26:26.777Z,2
2019-04-05T04:27:16.825Z,2.1
2019-04-05T04:28:06.325Z,2.1
2019-04-05T04:28:56.973Z,2.1
2019-04-05T04:29:47.029Z,2.1
2019-04-05T04:30:36.537Z,2.1
2019-04-05T04:31:26.878Z,2.1
2019-04-05T04:32:17.271Z,2.1
2019-04-05T04:33:07.358Z,2.2
2019-04-05T04:33:57.409Z,2.2
2019-04-05T04:34:47.366Z,2.2
2019-04-05T04:35:52.097Z,2.3
2019-04-05T04:36:27.228Z,2.3
2019-04-05T04:37:17.567Z,2.3
2019-04-05T04:38:07.604Z,2.3
2019-04-05T04:38:57.429Z,2.3
2019-04-05T04:39:47.469Z,2.3
2019-04-05T04:40:37.558Z,2.4
2019-04-05T04:41:30.068Z,2.4
2019-04-05T04:42:17.902Z,2.4
2019-04-05T04:43:07.676Z,2.4
2019-04-05T04:43:58.041Z,2.4
2019-04-05T04:44:48.078Z,2.5
2019-04-05T04:45:37.638Z,2.6
2019-04-05T04:46:28.210Z,2.6
2019-04-05T04:47:29.574Z,2.6
2019-04-05T04:48:08.358Z,2.7
2019-04-05T04:48:58.110Z,2.8
2019-04-05T04:49:48.464Z,2.8
2019-04-05T04:50:38.229Z,2.8
2019-04-05T04:51:28.535Z,2.9
2019-04-05T04:53:08.667Z,3.1
2019-04-05T04:53:58.462Z,3.1
2019-04-05T04:54:48.781Z,3.2
2019-04-05T04:55:38.894Z,3.3
2019-04-05T04:56:28.625Z,3.4
2019-04-05T04:57:18.965Z,3.6
2019-04-05T04:58:08.222Z,3.8
2019-04-05T04:58:58.534Z,4
2019-04-05T04:59:49.152Z,4.1
2019-04-05T05:00:38.940Z,4.4
2019-04-05T05:01:29.043Z,4.6
2019-04-05T05:02:19.352Z,4.9
2019-04-05T05:03:09.395Z,5.3
2019-04-05T05:03:59.472Z,5.6
2019-04-05T05:04:49.574Z,5.9
2019-04-05T05:05:39.601Z,6.3
2019-04-05T05:06:29.356Z,6.6
2019-04-05T05:07:19.432Z,6.9
2019-04-05T05:08:09.762Z,7.2
2019-04-05T05:08:59.557Z,7.6
2019-04-05T05:09:49.880Z,7.9
2019-04-05T05:10:39.932Z,8.2
2019-04-05T05:11:29.732Z,8.5
2019-04-05T05:12:20.060Z,8.8
2019-04-05T05:13:09.846Z,9.1
2019-04-05T05:14:00.177Z,9.4
2019-04-05T05:14:49.764Z,9.7
2019-04-05T05:15:40.281Z,10
2019-04-05T05:16:29.404Z,10.3
2019-04-05T05:17:19.937Z,10.6
2019-04-05T05:18:09.726Z,10.9
2019-04-05T05:19:00.061Z,11.1
2019-04-05T05:19:50.117Z,11.4
2019-04-05T05:20:39.625Z,11.7
2019-04-05T05:21:30.223Z,11.9
2019-04-05T05:22:20.293Z,12.2
2019-04-05T05:23:10.091Z,12.5
2019-04-05T05:24:00.415Z,12.8
2019-04-05T05:24:50.478Z,13.1
2019-04-05T05:25:40.539Z,13.3
2019-04-05T05:26:31.071Z,13.6
2019-04-05T05:27:20.652Z,13.8
2019-04-05T05:28:11.194Z,14.1
2019-04-05T05:29:00.832Z,14.4
2019-04-05T05:29:50.839Z,14.6
2019-04-05T05:30:41.302Z,14.9
2019-04-05T05:31:31.435Z,15.3
2019-04-05T05:32:21.493Z,15.6
2019-04-05T05:33:11.288Z,15.8
2019-04-05T05:34:01.343Z,16.1
2019-04-05T05:35:04.605Z,16.4
2019-04-05T05:35:41.482Z,16.8
2019-04-05T05:36:32.023Z,17.1
2019-04-05T05:37:21.583Z,17.3
2019-04-05T05:38:26.598Z,17.6
2019-04-05T05:39:01.993Z,18
2019-04-05T05:39:52.280Z,18.3
2019-04-05T05:40:42.085Z,18.6
2019-04-05T05:41:31.917Z,19
2019-04-05T05:42:21.675Z,19.3
2019-04-05T05:43:12.275Z,19.6
2019-04-05T05:44:02.344Z,19.9
2019-04-05T05:44:52.174Z,20.3
2019-04-05T05:45:42.241Z,20.5
2019-04-05T05:46:32.536Z,20.9
2019-04-05T05:47:22.352Z,21.3
2019-04-05T05:48:12.407Z,21.6
2019-04-05T05:49:02.740Z,21.9
2019-04-05T05:49:52.760Z,22.3
2019-04-05T05:50:42.802Z,22.7
2019-04-05T05:51:32.874Z,23
2019-04-05T05:52:22.652Z,23.4
2019-04-05T05:53:12.456Z,23.8
2019-04-05T05:54:02.790Z,24.1
2019-04-05T05:54:52.629Z,24.4
2019-04-05T05:55:43.186Z,24.9
2019-04-05T05:56:32.754Z,25.3
2019-04-05T05:57:23.309Z,25.6
2019-04-05T05:58:13.084Z,25.8
2019-04-05T05:59:03.436Z,26.1
2019-04-05T05:59:53.478Z,26.6
2019-04-05T06:00:43.259Z,27.1
2019-04-05T06:01:32.788Z,27.4
2019-04-05T06:05:10.141Z,29
2019-04-05T06:06:07.161Z,29.5
2019-04-05T06:06:50.741Z,29.9
2019-04-05T06:07:40.328Z,30.1
2019-04-05T06:08:31.791Z,30.4
2019-04-05T06:09:20.707Z,30.8
2019-04-05T06:10:11.043Z,31.2
2019-04-05T06:11:00.490Z,31.6
2019-04-05T06:11:51.435Z,32
2019-04-05T06:12:41.150Z,32.4
2019-04-05T06:13:31.245Z,32.9
2019-04-05T06:14:21.649Z,33.2
2019-04-05T06:15:11.609Z,33.5
2019-04-05T06:16:01.676Z,33.8
2019-04-05T06:17:06.644Z,34.1
2019-04-05T06:17:41.866Z,34.6
2019-04-05T06:18:31.850Z,34.9
2019-04-05T06:19:21.694Z,35.3
2019-04-05T06:20:11.244Z,35.6
2019-04-05T06:21:05.330Z,36
2019-04-05T06:21:52.085Z,36.4
2019-04-05T06:22:41.587Z,36.6
2019-04-05T06:23:36.327Z,36.9
2019-04-05T06:24:22.280Z,37.3
2019-04-05T06:25:12.489Z,37.7
2019-04-05T06:26:02.133Z,38.1
2019-04-05T06:26:52.469Z,38.6
2019-04-05T06:27:42.222Z,39.1
2019-04-05T06:28:32.780Z,39.5
2019-04-05T06:29:22.622Z,39.9
2019-04-05T06:30:12.457Z,40.2
2019-04-05T06:31:02.819Z,40.6
2019-04-05T06:31:53.038Z,40.9
2019-04-05T06:32:42.603Z,41.4
2019-04-05T06:33:37.375Z,41.9
2019-04-05T06:34:22.437Z,42.3
2019-04-05T06:35:12.759Z,42.8
2019-04-05T06:36:02.850Z,43
2019-04-05T06:36:53.490Z,43.6
2019-04-05T06:37:43.009Z,44
2019-04-05T06:38:32.746Z,44.4
2019-04-05T06:39:23.405Z,44.9
2019-04-05T06:40:13.126Z,45.4
2019-04-05T06:41:03.159Z,45.8
2019-04-05T06:41:52.701Z,46.1
2019-04-05T06:42:43.321Z,46.5
2019-04-05T06:43:33.101Z,46.9
2019-04-05T06:44:23.711Z,47.3
2019-04-05T06:45:13.506Z,47.8
2019-04-05T06:46:04.890Z,48.2
2019-04-05T06:46:53.826Z,48.6
2019-04-05T06:47:43.400Z,49
2019-04-05T06:48:34.012Z,49.4
2019-04-05T06:49:24.051Z,49.8
2019-04-05T06:50:13.844Z,50.3
2019-04-05T06:51:03.914Z,50.7
2019-04-05T06:51:54.279Z,51.1
2019-04-05T06:52:43.748Z,52.4
2019-04-05T06:53:34.368Z,50.4
2019-04-05T06:54:24.427Z,48.9
2019-04-05T06:55:14.495Z,46.8
2019-04-05T06:56:04.568Z,41.1
2019-04-05T06:56:54.619Z,36.9
2019-04-05T06:57:44.743Z,34.8
2019-04-05T06:58:34.718Z,33.8
2019-04-05T06:59:24.513Z,33.4
2019-04-05T07:00:14.161Z,33.6
2019-04-05T07:01:04.065Z,34.2
2019-04-05T07:01:54.960Z,35.6
2019-04-05T07:02:45.020Z,35.9
2019-04-05T07:05:10.911Z,39.2
2019-04-05T07:06:00.654Z,40.8
2019-04-05T07:06:50.985Z,41.8
2019-04-05T07:07:40.773Z,42.8
2019-04-05T07:08:31.126Z,43.8
2019-04-05T07:09:21.167Z,44.9
2019-04-05T07:10:10.937Z,45.9
2019-04-05T07:11:01.324Z,46.9
2019-04-05T07:11:51.338Z,47.9
2019-04-05T07:12:40.867Z,48.8
2019-04-05T07:13:31.207Z,49.6
2019-04-05T07:14:21.542Z,50.4
2019-04-05T07:15:11.010Z,51.1
2019-04-05T07:16:01.617Z,51.8
2019-04-05T07:16:51.704Z,53
2019-04-05T07:17:41.737Z,53.4
2019-04-05T07:18:38.172Z,50.9
2019-04-05T07:19:21.877Z,49.4
2019-04-05T07:20:11.444Z,47.3
2019-04-05T07:21:01.723Z,44.1
2019-04-05T07:21:51.782Z,41.4
2019-04-05T07:22:41.385Z,40.1
2019-04-05T07:23:32.182Z,40.3
2019-04-05T07:24:22.014Z,41.3
2019-04-05T07:25:12.311Z,42.6
2019-04-05T07:26:02.349Z,43.8
2019-04-05T07:26:52.163Z,45.1
2019-04-05T07:27:42.480Z,46.4
2019-04-05T07:28:32.541Z,47.8
2019-04-05T07:29:22.650Z,49
2019-04-05T07:30:12.665Z,50.1
2019-04-05T07:31:02.464Z,51.2
2019-04-05T07:31:52.769Z,52.5
2019-04-05T07:32:42.838Z,54.3
2019-04-05T07:33:32.392Z,53.6
2019-04-05T07:34:22.950Z,53.5
2019-04-05T07:35:12.752Z,52.5
2019-04-05T07:36:05.727Z,49.1
2019-04-05T07:36:53.213Z,46.9
2019-04-05T07:37:42.913Z,45.4
2019-04-05T07:38:33.256Z,45.9
2019-04-05T07:39:23.320Z,47.3
2019-04-05T07:40:12.818Z,48.6
2019-04-05T07:41:03.444Z,49.4
2019-04-05T07:41:53.233Z,49.8
2019-04-05T07:42:43.567Z,49.5
2019-04-05T07:43:33.628Z,48.9
2019-04-05T07:44:23.405Z,48.7
2019-04-05T07:45:13.197Z,48.8
2019-04-05T07:46:03.251Z,49.3
2019-04-05T07:46:53.863Z,49.6
2019-04-05T07:47:43.933Z,49.7
2019-04-05T07:48:47.585Z,49.8
2019-04-05T07:49:23.846Z,50.1
2019-04-05T07:50:14.090Z,50.3
2019-04-05T07:51:04.158Z,50.3
2019-04-05T07:51:54.235Z,49.9
2019-04-05T07:52:44.361Z,49.5
2019-04-05T07:53:34.345Z,49
2019-04-05T07:54:23.935Z,48.8
2019-04-05T07:55:13.909Z,48.7
2019-04-05T07:56:04.256Z,48.8
2019-04-05T07:56:54.312Z,49.5
2019-04-05T07:57:44.697Z,50.3
2019-04-05T07:58:34.442Z,50.9
2019-04-05T07:59:24.762Z,50.8
2019-04-05T08:00:14.842Z,50.2
2019-04-05T08:01:04.876Z,48.9
2019-04-05T08:01:54.680Z,48.3
2019-04-05T08:02:44.757Z,47.6
2019-04-05T08:03:35.065Z,47.2
2019-04-05T08:04:25.136Z,46.9
2019-04-05T08:05:14.938Z,46.6
2019-04-05T08:06:04.712Z,45.9
2019-04-05T08:06:55.309Z,45.3
2019-04-05T08:07:45.382Z,44.5
2019-04-05T08:08:35.426Z,43.9
2019-04-05T08:09:25.543Z,43.4
2019-04-05T08:10:15.537Z,43
2019-04-05T08:11:05.681Z,42.6
2019-04-05T08:11:55.668Z,42.3
2019-04-05T08:12:45.462Z,41.9
2019-04-05T08:13:35.815Z,41.6
2019-04-05T08:14:25.577Z,41.1
2019-04-05T08:15:15.618Z,40.6
2019-04-05T08:16:05.701Z,40.3
2019-04-05T08:16:55.760Z,40.2
2019-04-05T08:17:45.556Z,40.2
2019-04-05T08:18:35.902Z,40.3
2019-04-05T08:19:25.682Z,40.3
2019-04-05T08:20:16.062Z,40.2
2019-04-05T08:21:06.347Z,40
2019-04-05T08:21:56.397Z,40
2019-04-05T08:22:46.167Z,40
2019-04-05T08:23:36.252Z,39.9
2019-04-05T08:24:26.566Z,39.8
2019-04-05T08:25:16.354Z,39.8
2019-04-05T08:26:06.695Z,39.8
2019-04-05T08:26:56.755Z,39.8
2019-04-05T08:27:46.839Z,39.7
2019-04-05T08:28:36.904Z,39.6
2019-04-05T08:29:26.677Z,39.5
2019-04-05T08:30:17.004Z,39.4
2019-04-05T08:31:15.223Z,39.5
2019-04-05T08:31:57.143Z,39.5
2019-04-05T08:32:47.184Z,39.6
2019-04-05T08:33:38.919Z,39.8
2019-04-05T08:34:27.317Z,40.2
2019-04-05T08:35:17.088Z,40.7
2019-04-05T08:36:06.870Z,41.4
2019-04-05T08:36:57.468Z,42.4
2019-04-05T08:37:47.544Z,43.8
2019-04-05T08:38:40.784Z,44.9
2019-04-05T08:39:27.414Z,46
2019-04-05T08:40:17.721Z,46.8
2019-04-05T08:41:07.789Z,47.6
2019-04-05T08:41:57.558Z,48.2
2019-04-05T08:42:47.921Z,48.8
2019-04-05T08:43:37.976Z,49.2
2019-04-05T08:44:28.021Z,50.1
2019-04-05T08:45:18.091Z,51.7
2019-04-05T08:46:07.608Z,51.4
2019-04-05T08:46:58.203Z,50.8
2019-04-05T08:47:48.284Z,48.7
2019-04-05T08:48:38.045Z,45.3
2019-04-05T08:49:27.846Z,42.6
2019-04-05T08:50:18.440Z,41.8
2019-04-05T08:51:08.251Z,42.9
2019-04-05T08:51:58.308Z,45
2019-04-05T08:52:48.411Z,46.6
2019-04-05T08:53:38.689Z,47.4
2019-04-05T08:54:38.448Z,47.2
2019-04-05T08:55:18.815Z,46.1
2019-04-05T08:56:08.822Z,45.3
2019-04-05T08:56:58.943Z,44.2
2019-04-05T08:57:50.255Z,43.9
2019-04-05T08:58:38.772Z,44.1
2019-04-05T08:59:29.125Z,44.6
2019-04-05T09:00:19.179Z,45.1
2019-04-05T09:01:09.325Z,45.5
2019-04-05T09:01:59.015Z,45.9
2019-04-05T09:02:49.748Z,46.1
2019-04-05T09:03:39.158Z,46.2
2019-04-05T09:04:28.945Z,46.1
2019-04-05T09:05:19.554Z,46
2019-04-05T09:06:09.047Z,46.1
2019-04-05T09:06:59.662Z,46.1
2019-04-05T09:07:49.736Z,45.9
2019-04-05T09:08:39.527Z,45.4
2019-04-05T09:09:29.842Z,45.1
2019-04-05T09:10:19.714Z,44.9
2019-04-05T09:11:09.420Z,45
2019-04-05T09:12:00.037Z,45.1
2019-04-05T09:12:50.079Z,45.1
2019-04-05T09:13:40.156Z,45.3
2019-04-05T09:14:29.943Z,45.5
2019-04-05T09:15:19.991Z,46
2019-04-05T09:16:13.668Z,46.4
2019-04-05T09:17:00.386Z,46.4
2019-04-05T09:17:50.449Z,46.3
2019-04-05T09:18:40.229Z,46
2019-04-05T09:19:30.026Z,45.9
2019-04-05T09:20:20.650Z,46
2019-04-05T09:21:12.727Z,46.1
2019-04-05T09:22:00.743Z,46.3
2019-04-05T09:22:50.808Z,46.6
2019-04-05T09:23:40.933Z,47.2
2019-04-05T09:24:30.666Z,48.1
2019-04-05T09:25:22.356Z,48.9
2019-04-05T09:26:11.059Z,49.3
2019-04-05T09:27:01.111Z,49.2
2019-04-05T09:27:50.981Z,49.2
2019-04-05T09:28:41.033Z,49.3
2019-04-05T09:29:31.301Z,49.6
2019-04-05T09:30:21.358Z,49.4
2019-04-05T09:31:11.440Z,48.9
2019-04-05T09:32:51.275Z,47.9
2019-04-05T09:33:41.591Z,48.3
2019-04-05T09:34:31.788Z,49.1
2019-04-05T09:35:21.433Z,49.9
2019-04-05T09:36:11.778Z,50.8
2019-04-05T09:37:01.603Z,51.1
2019-04-05T09:37:51.095Z,51
2019-04-05T09:38:41.950Z,50.1
2019-04-05T09:39:31.741Z,48.9
2019-04-05T09:40:23.405Z,48.1
2019-04-05T09:41:12.147Z,47.3
2019-04-05T09:42:01.676Z,47.2
2019-04-05T09:42:52.015Z,47.2
2019-04-05T09:43:42.373Z,47.1
2019-04-05T09:44:32.381Z,46.9
2019-04-05T09:45:22.179Z,46.5
2019-04-05T09:46:12.515Z,45.9
2019-04-05T09:47:02.022Z,45.4
2019-04-05T09:47:52.352Z,44.9
2019-04-05T09:48:42.694Z,44.6
2019-04-05T09:49:39.397Z,44.4
2019-04-05T09:50:22.519Z,44.1
2019-04-05T09:51:12.880Z,43.8
2019-04-05T09:52:02.656Z,43.4
2019-04-05T09:52:52.462Z,43.1
2019-04-05T09:53:43.080Z,42.9
2019-04-05T09:54:33.109Z,42.4
2019-04-05T09:55:23.164Z,41.9
2019-04-05T09:56:12.684Z,41.4
2019-04-05T09:57:03.312Z,41.1
2019-04-05T09:57:52.789Z,40.8
2019-04-05T09:58:43.404Z,40.5
2019-04-05T09:59:33.464Z,40.4
2019-04-05T10:00:23.528Z,40.3
2019-04-05T10:01:13.339Z,40.3
2019-04-05T10:02:03.729Z,40.1
2019-04-05T10:02:53.510Z,40
2019-04-05T10:03:43.277Z,39.9
2019-04-05T10:07:09.339Z,39.5
2019-04-05T10:08:17.084Z,39.4
2019-04-05T10:09:34.741Z,39.4
2019-04-05T10:10:27.429Z,39.3
2019-04-05T12:06:10.332Z,34.2
2019-04-05T12:07:00.445Z,34.3
2019-04-05T12:07:50.845Z,34.5
2019-04-05T12:08:40.531Z,34.9
2019-04-05T12:09:30.875Z,35.2
2019-04-05T12:10:21.984Z,35.5
2019-04-05T12:11:10.969Z,35.8
2019-04-05T12:12:00.551Z,36.1
2019-04-05T12:12:51.124Z,36.3
2019-04-05T12:13:40.887Z,36.6
2019-04-05T12:14:34.436Z,36.8
2019-04-05T12:15:21.036Z,37
2019-04-05T12:16:12.752Z,37.1
2019-04-05T12:17:01.396Z,37.3
2019-04-05T12:17:50.935Z,37.4
2019-04-05T12:18:41.546Z,37.5
2019-04-05T12:19:34.491Z,37.6
2019-04-05T12:20:21.632Z,37.6
2019-04-05T12:21:11.468Z,37.6
2019-04-05T12:22:05.479Z,37.6
2019-04-05T12:22:55.012Z,37.8
2019-04-05T12:23:41.744Z,37.9
2019-04-05T12:24:35.203Z,37.9
2019-04-05T12:25:22.016Z,38
2019-04-05T12:26:11.804Z,38.1
2019-04-05T12:27:06.637Z,38.1
2019-04-05T12:28:00.211Z,38
2019-04-05T12:28:41.966Z,37.9
2019-04-05T12:29:32.023Z,37.9
2019-04-05T12:30:21.855Z,37.9
2019-04-05T12:31:12.428Z,37.8
2019-04-05T12:32:02.498Z,37.8
2019-04-05T12:32:52.277Z,37.8
2019-04-05T12:33:42.646Z,37.7
2019-04-05T12:34:32.134Z,37.6
2019-04-05T12:35:24.421Z,37.5
2019-04-05T12:36:12.510Z,37.4
2019-04-05T12:37:02.855Z,37.4
2019-04-05T12:37:57.902Z,37.3
2019-04-05T12:38:42.983Z,37.3
2019-04-05T12:39:37.082Z,37.3
2019-04-05T12:40:23.098Z,37.2
2019-04-05T12:41:13.908Z,37.2
2019-04-05T12:42:03.243Z,37.1
2019-04-05T12:42:55.589Z,37.1
2019-04-05T12:43:46.775Z,37.1
2019-04-05T12:44:32.848Z,37
2019-04-05T12:45:23.464Z,37
2019-04-05T12:46:18.251Z,37
2019-04-05T12:47:03.041Z,36.9
2019-04-05T12:47:53.366Z,36.9
2019-04-05T12:48:47.932Z,36.9
2019-04-05T12:49:33.770Z,37
2019-04-05T12:50:23.554Z,37
2019-04-05T12:51:18.003Z,37.1
2019-04-05T12:52:03.420Z,37.2
2019-04-05T12:52:57.961Z,37.4
2019-04-05T12:53:43.592Z,37.5
2019-04-05T12:54:33.850Z,37.6
2019-04-05T12:55:26.552Z,37.7
2019-04-05T12:56:13.710Z,37.8
2019-04-05T12:57:04.359Z,37.9
2019-04-05T12:57:57.412Z,38.1
2019-04-05T12:58:44.442Z,38.3
2019-04-05T12:59:34.252Z,38.4
2019-04-05T13:00:28.414Z,38.6
2019-04-05T13:01:14.360Z,38.8
2019-04-05T13:02:04.402Z,38.8
2019-04-05T13:02:57.564Z,38.9
2019-04-05T13:03:44.541Z,39
2019-04-05T13:04:34.854Z,39.2
2019-04-05T13:05:24.921Z,39.3
2019-04-05T13:06:15.462Z,39.4
2019-04-05T13:07:05.046Z,39.6
2019-04-05T13:07:56.032Z,39.7
2019-04-05T13:08:45.181Z,39.8
2019-04-05T13:09:35.254Z,40
2019-04-05T13:10:31.559Z,40.1
2019-04-05T13:11:15.436Z,40.1
2019-04-05T13:12:05.236Z,40.3
2019-04-05T13:13:00.110Z,40.3
2019-04-05T13:13:44.976Z,40.4
2019-04-05T13:14:35.603Z,40.4
2019-04-05T13:15:25.108Z,40.4
2019-04-05T13:16:15.701Z,40.4
2019-04-05T13:17:05.232Z,40.4
2019-04-05T13:17:55.828Z,40.5
2019-04-05T13:18:45.348Z,40.6
2019-04-05T13:19:35.963Z,40.6
2019-04-05T13:20:26.023Z,40.7
2019-04-05T13:21:17.763Z,40.8
2019-04-05T13:22:06.178Z,40.8
2019-04-05T13:22:55.921Z,40.8
2019-04-05T13:23:46.018Z,40.7
2019-04-05T13:24:40.424Z,40.6
2019-04-05T13:25:26.169Z,40.4
2019-04-05T13:26:15.913Z,40.3
2019-04-05T13:27:06.533Z,40.1
2019-04-05T13:27:56.557Z,40.1
2019-04-05T13:28:50.777Z,40.1
2019-04-05T13:29:36.700Z,40.1
2019-04-05T13:30:26.852Z,40.1
2019-04-05T13:31:20.470Z,40
2019-04-05T13:32:06.600Z,39.9
2019-04-05T13:32:56.403Z,39.8
2019-04-05T13:33:46.450Z,39.8
2019-04-05T13:34:37.047Z,39.7
2019-04-05T13:35:26.854Z,39.5
2019-04-05T13:36:17.172Z,39.3
2019-04-05T13:37:21.300Z,39.3
2019-04-05T13:38:01.402Z,39.1
2019-04-05T13:39:01.657Z,39.1
2019-04-05T13:39:37.195Z,38.9
2019-04-05T13:40:31.651Z,38.9
2019-04-05T13:41:20.121Z,38.7
2019-04-05T13:42:07.639Z,38.6
2019-04-05T13:43:01.376Z,38.6
2019-04-05T13:43:47.434Z,38.6
2019-04-05T13:44:37.517Z,38.6
2019-04-05T13:45:27.562Z,38.5
2019-04-05T13:46:27.859Z,38.4
2019-04-05T13:47:11.085Z,38.3
2019-04-05T13:47:58.017Z,38.1
2019-04-05T13:48:47.809Z,37.9
2019-04-05T13:49:42.461Z,37.8
2019-04-05T13:50:27.932Z,37.6
2019-04-05T13:51:33.871Z,37.4
2019-04-05T13:52:13.704Z,37.2
2019-04-05T13:52:58.390Z,37.1
2019-04-05T13:53:48.531Z,37.1
2019-04-05T13:54:42.088Z,37
2019-04-05T13:55:28.621Z,36.9
2019-04-05T13:56:18.629Z,36.9
2019-04-05T13:57:12.604Z,36.8
2019-04-05T13:58:01.737Z,36.6
2019-04-05T13:58:49.203Z,36.5
2019-04-05T13:59:38.878Z,36.4
2019-04-05T14:00:28.658Z,36.2
2019-04-05T14:01:23.709Z,36
2019-04-05T14:02:09.295Z,35.9
2019-04-05T14:02:58.858Z,35.8
2019-04-05T14:03:52.708Z,35.8
2019-04-05T14:04:39.234Z,35.6
2019-04-05T14:07:10.245Z,35.3
2019-04-05T14:08:12.838Z,35
2019-04-05T14:08:50.375Z,34.7
2019-04-05T14:09:43.208Z,34.6
2019-04-05T14:10:30.520Z,34.5
2019-04-05T14:11:20.005Z,34.3
2019-04-05T14:12:12.560Z,34.2
2019-04-05T14:13:00.931Z,34.1
2019-04-05T14:13:50.460Z,34
2019-04-05T14:14:44.153Z,33.9
2019-04-05T14:15:33.389Z,33.8
2019-04-05T14:16:21.190Z,33.8
2019-04-05T14:17:15.365Z,33.8
2019-04-05T14:18:01.310Z,33.6
2019-04-05T14:18:52.342Z,33.4
2019-04-05T14:19:41.437Z,33.4
2019-04-05T14:20:31.221Z,33.3
2019-04-05T14:21:24.719Z,33.1
2019-04-05T14:22:14.009Z,32.9
2019-04-05T14:23:03.251Z,32.8
2019-04-05T14:23:56.331Z,32.7
2019-04-05T14:24:44.193Z,32.5
2019-04-05T14:25:34.263Z,32.4
2019-04-05T14:26:24.308Z,32.2
2019-04-05T14:27:14.370Z,32.1
2019-04-05T14:28:07.369Z,32
2019-04-05T14:28:55.596Z,31.9
2019-04-05T14:29:43.795Z,31.8
2019-04-05T14:30:35.759Z,31.7
2019-04-05T14:31:24.407Z,31.6
2019-04-05T14:32:24.048Z,31.6
2019-04-05T14:33:04.815Z,31.4
2019-04-05T14:33:56.960Z,31.4
2019-04-05T14:34:44.918Z,31.2
2019-04-05T14:35:34.976Z,31
2019-04-05T14:36:26.005Z,30.9
2019-04-05T14:37:15.095Z,30.8
2019-04-05T14:38:05.500Z,30.8
2019-04-05T14:38:55.243Z,30.7
2019-04-05T14:39:45.000Z,30.7
2019-04-05T14:40:35.353Z,30.6
2019-04-05T14:41:25.398Z,30.6
2019-04-05T14:42:17.663Z,30.6
2019-04-05T14:43:05.540Z,30.5
2019-04-05T14:43:56.065Z,30.5
2019-04-05T14:44:45.691Z,30.4
2019-04-05T14:45:35.167Z,30.4
2019-04-05T14:46:30.205Z,30.3
2019-04-05T14:47:15.826Z,30.3
2019-04-05T14:48:05.127Z,30.2
2019-04-05T14:48:55.394Z,30.2
2019-04-05T14:49:45.757Z,30.1
2019-04-05T14:50:36.085Z,30.1
2019-04-05T14:51:30.442Z,30.1
2019-04-05T14:52:15.911Z,30.1
2019-04-05T14:53:05.898Z,30.1
2019-04-05T14:53:56.316Z,30.1
2019-04-05T14:54:46.120Z,30
2019-04-05T14:55:36.189Z,30
2019-04-05T14:56:30.698Z,29.9
2019-04-05T14:57:16.551Z,29.9
2019-04-05T14:58:11.499Z,29.9
2019-04-05T14:58:56.678Z,29.9
2019-04-05T14:59:46.762Z,30
2019-04-05T15:00:36.816Z,30.1
2019-04-05T15:01:26.582Z,30.1
2019-04-05T15:02:16.638Z,30.1
2019-04-05T15:03:06.984Z,30.1
2019-04-05T15:03:56.771Z,30.1
2019-04-05T15:04:49.887Z,30.1
2019-04-05T15:05:37.156Z,30
2019-04-05T15:06:28.854Z,29.9
2019-04-05T15:07:21.533Z,29.9
2019-04-05T15:08:07.415Z,29.8
2019-04-05T15:08:57.398Z,29.8
2019-04-05T15:09:46.633Z,29.7
2019-04-05T15:10:37.251Z,29.6
2019-04-05T15:11:31.294Z,29.6
2019-04-05T15:12:17.635Z,29.5
2019-04-05T15:13:07.703Z,29.4
2019-04-05T15:13:57.215Z,29.3
2019-04-05T15:14:47.848Z,29.3
2019-04-05T15:15:37.618Z,29.2
2019-04-05T15:16:27.685Z,29.1
2019-04-05T15:17:18.507Z,29
2019-04-05T15:18:07.778Z,28.9
2019-04-05T15:18:58.128Z,28.9
2019-04-05T15:19:48.182Z,28.8
2019-04-05T15:20:38.010Z,28.7
2019-04-05T15:21:28.043Z,28.6
2019-04-05T15:22:18.100Z,28.6
2019-04-05T15:23:15.576Z,28.5
2019-04-05T15:23:58.508Z,28.4
2019-04-05T15:24:49.997Z,28.3
2019-04-05T15:25:38.405Z,28.3
2019-04-05T15:26:28.667Z,28.3
2019-04-05T15:27:22.258Z,28.1
2019-04-05T15:28:08.790Z,28
2019-04-05T15:28:58.582Z,27.9
2019-04-05T15:29:48.947Z,27.8
2019-04-05T15:30:38.985Z,27.7
2019-04-05T15:31:29.108Z,27.7
2019-04-05T15:32:23.306Z,27.6
2019-04-05T15:33:09.196Z,27.4
2019-04-05T15:34:00.709Z,27.4
2019-04-05T15:34:49.032Z,27.3
2019-04-05T15:35:39.340Z,27.1
2019-04-05T15:36:33.629Z,27
2019-04-05T15:37:19.185Z,26.9
2019-04-05T15:38:09.240Z,26.9
2019-04-05T15:39:03.397Z,26.8
2019-04-05T15:39:49.392Z,26.6
2019-04-05T15:40:39.689Z,26.4
2019-04-05T15:41:29.491Z,26.3
2019-04-05T15:42:19.851Z,26.2
2019-04-05T15:43:09.895Z,26.1
2019-04-05T15:43:59.938Z,26
2019-04-05T15:44:50.426Z,25.9
2019-04-05T15:45:42.538Z,25.8
2019-04-05T15:46:29.595Z,25.6
2019-04-05T15:47:23.946Z,25.6
2019-04-05T15:48:09.990Z,25.4
2019-04-05T15:49:00.061Z,25.3
2019-04-05T15:49:54.579Z,25.2
2019-04-05T15:50:39.876Z,25.1
2019-04-05T15:51:30.491Z,24.9
2019-04-05T15:52:21.752Z,24.8
2019-04-05T15:53:09.781Z,24.8
2019-04-05T15:54:03.636Z,24.7
2019-04-05T15:54:50.470Z,24.6
2019-04-05T15:55:40.243Z,24.4
2019-04-05T15:56:34.799Z,24.4
2019-04-05T15:57:20.361Z,24.3
2019-04-05T15:58:10.968Z,24.1
2019-04-05T15:59:05.369Z,24
2019-04-05T15:59:50.907Z,23.9
2019-04-05T16:00:40.940Z,23.8
2019-04-05T16:01:35.468Z,23.7
2019-04-05T16:02:21.280Z,23.6
2019-04-05T16:03:11.325Z,23.4
2019-04-05T16:04:04.827Z,23.3
2019-04-05T16:04:50.923Z,23.2
2019-04-05T16:07:10.175Z,22.9
2019-04-05T16:08:00.239Z,22.8
2019-04-05T16:08:50.299Z,22.7
2019-04-05T16:09:40.353Z,22.6
2019-04-05T16:10:30.702Z,22.4
2019-04-05T16:11:20.742Z,22.4
2019-04-05T16:12:10.800Z,22.3
2019-04-05T16:13:00.862Z,22.1
2019-04-05T16:13:50.662Z,22
2019-04-05T16:14:40.723Z,21.9
2019-04-05T16:15:30.765Z,21.8
2019-04-05T16:16:21.116Z,21.8
2019-04-05T16:17:13.704Z,21.6
2019-04-05T16:18:00.952Z,21.5
2019-04-05T16:18:51.289Z,21.4
2019-04-05T16:19:41.334Z,21.3
2019-04-05T16:20:30.932Z,21.2
2019-04-05T16:22:11.532Z,21
2019-04-05T16:23:01.047Z,20.9
2019-04-05T16:23:50.834Z,20.8
2019-04-05T16:24:41.441Z,20.7
2019-04-05T16:25:31.775Z,20.6
2019-04-05T16:26:21.851Z,20.5
2019-04-05T16:27:11.916Z,20.4
2019-04-05T16:28:01.491Z,20.3
2019-04-05T16:28:52.019Z,20.2
2019-04-05T16:29:41.816Z,20